Mayer, Minnesota
Current Conditions -  °F | °C
As of 9:34 PM on Wednesday 22 Oct 2014 (Local Time) from KGYL Reporting Station
Scattered Clouds Scattered Clouds  
Wind Chill: 58°   Ceiling: Unl
Heat Index: 58°   Visibility: 10mi
Dew Point: 45°   Wind: 8mph
Humidity: 62%   Direction: 160°SSE
Pressure: 30.01"   Gusts: 17mph
Location:  44.88°N, 93.89°W
Report Text: KGYL 230234Z AUTO 16007G15KT 10SM SCT075 SCT120 15/07 A3001 RMK AO2 T01450074
Loading
Personal Weather Stations






























Interactive Weather Map New forecast layout! Learn more

10-Day Weather Forecast

Advertisements
Track Severe Weather on mobile